Time;durP1;ratioP1;P1;durP2;ratioP2;P2;SDS_P1;SDS_P2;PMS_P1;PMS_P2;Temp;Humidity;BMP_temperature;BMP_pressure;BME280_temperature;BME280_humidity;BME280_pressure;Samples;Min_cycle;Max_cycle;Signal;HPM_P1;HPM_P2
2023/09/24 00:03:33;;;;;;;4.80;3.00;;;;;;;12.93;100.00;100767.45;185015;1240;44530;-61
2023/09/24 00:07:36;;;;;;;4.70;2.50;;;;;;;12.92;100.00;100773.77;185024;1237;58813;-60
2023/09/24 00:11:39;;;;;;;3.30;2.60;;;;;;;12.91;100.00;100778.84;184720;1238;44952;-60
2023/09/24 00:15:40;;;;;;;3.20;2.80;;;;;;;12.90;100.00;100777.70;185532;1234;45982;-60
2023/09/24 00:19:42;;;;;;;3.60;3.20;;;;;;;12.88;100.00;100775.17;185577;1234;43697;-60
2023/09/24 00:23:46;;;;;;;2.20;2.00;;;;;;;12.84;100.00;100775.29;185535;1235;44988;-61
2023/09/24 00:27:49;;;;;;;14.20;2.60;;;;;;;12.76;100.00;100774.35;185552;1234;58405;-60
2023/09/24 00:31:53;;;;;;;7.10;3.10;;;;;;;12.59;100.00;100772.23;185631;1234;45867;-60
2023/09/24 00:35:59;;;;;;;3.10;1.80;;;;;;;12.35;100.00;100774.73;185611;1234;44261;-60
2023/09/24 00:40:02;;;;;;;2.70;1.90;;;;;;;12.25;100.00;100771.24;185485;1237;43714;-60
2023/09/24 00:44:05;;;;;;;2.30;1.80;;;;;;;12.18;100.00;100771.63;185625;1234;43799;-60
2023/09/24 00:48:10;;;;;;;3.30;2.20;;;;;;;12.18;100.00;100774.69;185402;1234;58317;-60
2023/09/24 00:52:14;;;;;;;9.90;2.80;;;;;;;12.23;100.00;100771.63;185510;1234;44275;-60
2023/09/24 00:56:17;;;;;;;4.50;2.90;;;;;;;12.22;100.00;100770.42;185508;1234;44927;-62
2023/09/24 01:00:22;;;;;;;3.60;2.70;;;;;;;12.20;100.00;100774.18;185462;1237;45092;-60
2023/09/24 01:04:35;;;;;;;3.70;2.80;;;;;;;12.11;100.00;100779.11;185491;1234;46292;-60
2023/09/24 01:08:38;;;;;;;5.00;3.10;;;;;;;12.01;100.00;100783.96;185707;1234;58228;-61
2023/09/24 01:13:15;;;;;;;3.60;2.40;;;;;;;11.93;100.00;100789.58;185554;1233;43465;-62
2023/09/24 01:17:20;;;;;;;6.20;2.60;;;;;;;11.82;100.00;100795.96;185433;1235;44289;-61
2023/09/24 01:21:28;;;;;;;3.10;2.40;;;;;;;11.85;100.00;100801.75;185507;1234;44829;-61
2023/09/24 01:25:35;;;;;;;3.90;2.30;;;;;;;11.95;100.00;100810.41;185673;1234;43501;-61
2023/09/24 01:29:43;;;;;;;3.10;2.60;;;;;;;12.03;100.00;100815.27;185457;1234;58325;-62
2023/09/24 01:33:56;;;;;;;4.10;2.50;;;;;;;11.99;100.00;100817.38;185563;1237;44528;-61
2023/09/24 01:38:04;;;;;;;4.00;3.00;;;;;;;11.94;100.00;100815.41;185487;1237;43756;-60
2023/09/24 01:42:07;;;;;;;3.30;2.10;;;;;;;11.99;100.00;100824.34;185550;1234;45987;-61
2023/09/24 01:46:13;;;;;;;3.20;2.90;;;;;;;12.07;100.00;100830.45;185474;1234;43704;-61
2023/09/24 01:55:29;;;;;;;4.20;2.20;;;;;;;12.22;100.00;100839.98;185551;1234;43565;-61
2023/09/24 01:59:34;;;;;;;5.30;3.10;;;;;;;12.28;100.00;100849.94;185374;1234;44606;-61
2023/09/24 02:03:36;;;;;;;9.20;2.90;;;;;;;12.28;100.00;100853.66;185436;1234;46055;-61
2023/09/24 02:07:40;;;;;;;5.60;2.90;;;;;;;12.26;100.00;100853.67;185526;1234;45944;-61
2023/09/24 02:11:53;;;;;;;3.60;2.50;;;;;;;12.27;100.00;100855.90;185393;1234;58368;-62
2023/09/24 02:16:01;;;;;;;3.60;2.60;;;;;;;12.30;100.00;100863.15;185599;1234;44509;-61
2023/09/24 02:20:10;;;;;;;4.70;2.30;;;;;;;12.29;100.00;100865.16;185486;1235;43942;-60
2023/09/24 02:24:18;;;;;;;5.10;2.10;;;;;;;12.15;100.00;100869.83;185715;1234;45847;-60
2023/09/24 02:28:24;;;;;;;5.90;3.40;;;;;;;12.05;100.00;100874.69;185499;1234;43539;-61
2023/09/24 02:32:27;;;;;;;3.90;3.40;;;;;;;12.07;100.00;100881.27;185451;1234;58273;-61
2023/09/24 02:36:33;;;;;;;3.80;2.70;;;;;;;12.12;100.00;100892.85;185493;1234;45938;-61
2023/09/24 02:40:34;;;;;;;2.90;2.60;;;;;;;12.11;100.00;100900.34;185515;1234;44699;-61
2023/09/24 02:44:36;;;;;;;3.50;2.40;;;;;;;11.88;100.00;100901.73;185461;1234;44868;-61
2023/09/24 02:48:39;;;;;;;3.80;2.30;;;;;;;11.63;100.00;100908.95;185475;1236;43518;-62
2023/09/24 02:53:13;;;;;;;2.60;2.40;;;;;;;11.61;100.00;100917.11;185515;1234;57805;-61
2023/09/24 02:57:15;;;;;;;6.90;3.70;;;;;;;11.69;100.00;100923.61;185575;1234;43443;-62
2023/09/24 03:01:20;;;;;;;4.70;2.80;;;;;;;11.77;100.00;100921.39;185707;1234;46353;-61
2023/09/24 03:05:35;;;;;;;3.80;2.40;;;;;;;11.74;100.00;100920.95;185702;1234;43727;-61
2023/09/24 03:09:41;;;;;;;4.80;2.70;;;;;;;11.67;100.00;100919.13;185666;1234;43735;-61
2023/09/24 03:13:47;;;;;;;3.80;2.70;;;;;;;11.53;100.00;100927.45;185548;1234;58298;-61
2023/09/24 03:17:54;;;;;;;8.80;3.40;;;;;;;11.40;100.00;100932.72;185690;1234;43486;-61
2023/09/24 03:21:57;;;;;;;5.00;3.40;;;;;;;11.43;100.00;100941.20;185720;1237;45832;-61
2023/09/24 03:26:01;;;;;;;6.10;2.70;;;;;;;11.52;100.00;100950.13;185448;1234;45873;-61
2023/09/24 03:30:04;;;;;;;4.10;3.10;;;;;;;11.53;100.00;100951.12;185641;1234;44616;-61
2023/09/24 03:34:05;;;;;;;4.70;2.90;;;;;;;11.56;100.00;100951.73;185559;1234;58029;-61
2023/09/24 03:38:07;;;;;;;4.70;2.80;;;;;;;11.57;100.00;100962.54;185516;1237;44374;-61
2023/09/24 03:42:09;;;;;;;5.40;3.00;;;;;;;11.57;100.00;100971.94;185497;1234;43556;-61
2023/09/24 03:46:17;;;;;;;3.20;2.70;;;;;;;11.54;100.00;100971.29;185583;1235;45273;-61
2023/09/24 03:50:19;;;;;;;3.60;3.10;;;;;;;11.42;100.00;100976.42;185383;1234;43729;-61
2023/09/24 03:54:21;;;;;;;5.90;2.90;;;;;;;11.36;100.00;100977.59;185438;1237;57441;-61
2023/09/24 03:58:24;;;;;;;4.70;3.60;;;;;;;11.31;100.00;100976.58;185599;1234;45909;-61
2023/09/24 04:02:29;;;;;;;3.50;3.20;;;;;;;11.29;100.00;100978.85;185489;1235;45854;-60
2023/09/24 04:06:31;;;;;;;7.60;3.90;;;;;;;11.19;100.00;100990.73;185604;1235;43661;-62
2023/09/24 04:10:40;;;;;;;3.80;2.80;;;;;;;11.07;100.00;101001.19;185554;1234;43465;-61
2023/09/24 04:14:42;;;;;;;3.00;2.40;;;;;;;11.06;100.00;101005.52;185628;1234;58171;-61
2023/09/24 04:18:44;;;;;;;3.60;2.20;;;;;;;11.12;100.00;101008.08;185567;1234;44736;-61
2023/09/24 04:23:43;;;;;;;6.60;3.50;;;;;;;11.19;100.00;101011.50;185504;1234;44974;-62
2023/09/24 04:27:44;;;;;;;4.50;3.50;;;;;;;11.11;100.00;101009.41;185634;1234;45867;-62
2023/09/24 04:31:53;;;;;;;3.60;3.00;;;;;;;11.01;100.00;101015.48;185589;1234;45846;-61
2023/09/24 04:35:54;;;;;;;5.60;3.00;;;;;;;10.88;100.00;101023.81;185539;1237;58349;-60
2023/09/24 04:39:56;;;;;;;5.00;3.50;;;;;;;10.83;100.00;101028.60;185723;1234;43963;-61
2023/09/24 04:44:04;;;;;;;4.00;2.90;;;;;;;10.84;100.00;101028.55;185488;1237;45296;-60
2023/09/24 04:48:09;;;;;;;5.30;2.90;;;;;;;10.93;100.00;101037.48;185487;1234;45867;-62
2023/09/24 04:52:17;;;;;;;5.20;3.20;;;;;;;11.08;100.00;101039.27;185727;1234;45935;-61
2023/09/24 04:56:19;;;;;;;6.80;3.40;;;;;;;11.11;100.00;101042.97;185611;1234;58476;-62
2023/09/24 05:00:21;;;;;;;5.50;3.60;;;;;;;11.13;100.00;101045.63;185526;1235;43765;-60
2023/09/24 05:04:28;;;;;;;3.30;2.90;;;;;;;11.15;100.00;101048.54;185703;1235;45865;-61
2023/09/24 05:08:34;;;;;;;3.70;3.30;;;;;;;11.22;100.00;101053.85;185492;1234;43612;-61
2023/09/24 05:12:41;;;;;;;4.10;2.20;;;;;;;11.28;100.00;101062.67;185593;1235;45812;-61
2023/09/24 05:16:44;;;;;;;3.70;3.20;;;;;;;11.33;100.00;101066.77;185477;1235;58446;-61
2023/09/24 05:20:46;;;;;;;5.00;3.00;;;;;;;11.39;100.00;101071.29;185733;1234;46123;-61
2023/09/24 05:24:48;;;;;;;3.40;3.10;;;;;;;11.45;100.00;101076.38;185606;1234;45092;-61
2023/09/24 05:28:50;;;;;;;7.40;3.10;;;;;;;11.53;100.00;101085.95;185632;1235;43474;-61
2023/09/24 05:32:52;;;;;;;6.50;3.40;;;;;;;11.64;100.00;101096.65;185638;1234;44432;-61
2023/09/24 05:36:55;;;;;;;4.50;3.90;;;;;;;11.87;100.00;101099.77;185546;1235;58751;-61
2023/09/24 05:40:57;;;;;;;5.70;4.20;;;;;;;12.23;100.00;101104.83;185634;1233;43538;-61
2023/09/24 05:44:59;;;;;;;4.80;4.40;;;;;;;12.73;100.00;101111.52;185622;1234;45106;-61
2023/09/24 05:49:05;;;;;;;4.20;3.80;;;;;;;13.41;100.00;101111.33;185660;1234;44914;-61
2023/09/24 05:53:25;;;;;;;4.30;3.00;;;;;;;13.79;100.00;101116.29;177801;1236;10152866;-61
2023/09/24 05:57:27;;;;;;;5.20;2.90;;;;;;;13.86;100.00;101123.83;185431;1234;43596;-61
2023/09/24 06:01:32;;;;;;;5.10;2.40;;;;;;;13.75;100.00;101131.25;185706;1234;43680;-61
2023/09/24 06:05:40;;;;;;;5.40;2.60;;;;;;;13.65;100.00;101133.83;185585;1235;59131;-61
2023/09/24 06:09:48;;;;;;;6.20;3.40;;;;;;;13.80;100.00;101137.83;185685;1233;44067;-62
2023/09/24 06:13:49;;;;;;;4.60;2.90;;;;;;;14.01;100.00;101140.60;185685;1235;44711;-61
2023/09/24 06:17:52;;;;;;;4.20;3.40;;;;;;;14.09;100.00;101140.93;185529;1234;44940;-61
2023/09/24 06:21:59;;;;;;;3.60;2.60;;;;;;;14.23;100.00;101147.83;185583;1235;43585;-61
2023/09/24 06:26:04;;;;;;;4.70;2.70;;;;;;;14.22;100.00;101156.13;185554;1235;58301;-61
2023/09/24 06:30:12;;;;;;;4.80;3.40;;;;;;;14.23;100.00;101163.04;185469;1234;44720;-61
2023/09/24 06:34:13;;;;;;;4.00;2.30;;;;;;;14.19;100.00;101166.09;185609;1234;44976;-62
2023/09/24 06:38:18;;;;;;;5.00;2.60;;;;;;;14.35;100.00;101170.05;185744;1236;43725;-62
2023/09/24 06:42:19;;;;;;;6.70;3.30;;;;;;;14.59;100.00;101171.23;185562;1234;44894;-61
2023/09/24 06:46:50;;;;;;;4.40;2.70;;;;;;;14.72;100.00;101171.05;185379;1234;57443;-62
2023/09/24 06:50:55;;;;;;;3.30;3.00;;;;;;;14.74;100.00;101169.88;185379;1235;45746;-62
2023/09/24 06:54:57;;;;;;;6.00;3.40;;;;;;;14.89;100.00;101175.05;185519;1235;46078;-61
2023/09/24 06:58:58;;;;;;;7.40;3.70;;;;;;;15.10;100.00;101177.33;185442;1234;45857;-61
2023/09/24 07:03:00;;;;;;;5.00;3.80;;;;;;;15.21;100.00;101181.33;185681;1234;43440;-63
2023/09/24 07:07:03;;;;;;;3.20;2.90;;;;;;;15.16;99.96;101185.94;185521;1235;57739;-61
2023/09/24 07:11:54;;;;;;;4.50;2.80;;;;;;;15.20;100.00;101185.55;185474;1234;45620;-62
2023/09/24 07:15:56;;;;;;;4.20;3.10;;;;;;;15.23;99.77;101195.84;185552;1233;44646;-61
2023/09/24 07:19:58;;;;;;;7.70;3.30;;;;;;;15.19;100.00;101192.40;185678;1234;43849;-62
2023/09/24 07:24:28;;;;;;;3.40;2.90;;;;;;;15.38;100.00;101188.08;185707;1234;43505;-61
2023/09/24 07:28:30;;;;;;;3.90;3.30;;;;;;;15.52;99.61;101194.00;185746;1235;58977;-62
2023/09/24 07:32:33;;;;;;;2.50;2.30;;;;;;;15.57;99.17;101200.42;185697;1234;43879;-61
2023/09/24 07:36:51;;;;;;;4.00;3.30;;;;;;;15.49;98.65;101201.27;185691;1234;43521;-60
2023/09/24 07:41:13;;;;;;;4.80;3.00;;;;;;;15.49;100.00;101208.46;185608;1233;45902;-61
2023/09/24 07:45:19;;;;;;;6.90;4.10;;;;;;;15.75;99.41;101210.92;185608;1234;44907;-59
2023/09/24 07:49:21;;;;;;;4.00;2.80;;;;;;;15.97;97.07;101209.96;185608;1233;57691;-62
2023/09/24 07:53:23;;;;;;;5.30;4.30;;;;;;;16.10;96.58;101213.94;185637;1234;43578;-61
2023/09/24 07:57:25;;;;;;;5.80;3.70;;;;;;;16.24;96.81;101222.40;185642;1234;43672;-59
2023/09/24 08:01:27;;;;;;;3.10;2.70;;;;;;;16.38;95.99;101227.38;185497;1236;43956;-60
2023/09/24 08:05:33;;;;;;;5.60;3.40;;;;;;;16.45;94.72;101230.82;185591;1234;44778;-60
2023/09/24 08:09:38;;;;;;;6.20;3.70;;;;;;;16.46;96.23;101239.16;185638;1235;57306;-60
2023/09/24 08:13:41;;;;;;;4.90;4.00;;;;;;;16.51;96.85;101243.04;185566;1235;44578;-60
2023/09/24 08:34:19;;;;;;;5.60;3.30;;;;;;;16.97;92.71;101261.55;187157;1234;58255;-60
2023/09/24 08:38:23;;;;;;;7.40;4.40;;;;;;;17.03;93.53;101261.56;187231;1234;43036;-60
2023/09/24 08:42:25;;;;;;;5.40;4.10;;;;;;;17.12;93.38;101264.80;187208;1233;42935;-60
2023/09/24 08:46:27;;;;;;;4.70;3.60;;;;;;;17.19;92.18;101270.78;187246;1233;43037;-60
2023/09/24 08:50:44;;;;;;;5.50;4.00;;;;;;;17.15;92.18;101274.23;187169;1234;42991;-61
2023/09/24 08:54:47;;;;;;;6.30;3.90;;;;;;;17.16;90.31;101268.45;187198;1234;59335;-60
2023/09/24 08:58:53;;;;;;;4.20;3.60;;;;;;;17.23;91.44;101272.61;187176;1233;43734;-60
2023/09/24 09:02:54;;;;;;;5.40;4.20;;;;;;;17.28;90.61;101273.38;187152;1234;43664;-61
2023/09/24 09:18:21;;;;;;;3.60;3.10;;;;;;;17.47;92.99;101277.10;180937;1263;580688;-58
2023/09/24 09:22:29;;;;;;;4.70;3.30;;;;;;;17.58;90.54;101275.19;184059;1244;57417;-59
2023/09/24 09:26:33;;;;;;;6.10;3.70;;;;;;;17.57;89.16;101275.10;183966;1244;45259;-59
2023/09/24 09:30:35;;;;;;;5.70;4.70;;;;;;;17.66;90.29;101272.84;183979;1249;44956;-59
2023/09/24 09:34:52;;;;;;;5.50;4.40;;;;;;;17.68;90.39;101275.83;183907;1244;43733;-59
2023/09/24 09:38:57;;;;;;;6.20;4.50;;;;;;;17.85;95.44;101278.89;184269;1244;45947;-61
2023/09/24 09:43:05;;;;;;;9.20;3.60;;;;;;;18.15;93.57;101278.55;183990;1244;58208;-61
2023/09/24 09:47:37;;;;;;;7.80;5.30;;;;;;;18.42;89.77;101277.55;184149;1245;44944;-62
2023/09/24 09:51:46;;;;;;;5.50;4.50;;;;;;;18.59;88.53;101275.29;184220;1244;44627;-60
2023/09/24 09:55:50;;;;;;;5.10;4.60;;;;;;;18.58;86.75;101273.25;184138;1244;44734;-64
2023/09/24 09:59:57;;;;;;;8.90;4.10;;;;;;;18.63;88.15;101272.90;184007;1244;45872;-61
2023/09/24 10:04:04;;;;;;;6.00;4.40;;;;;;;18.82;85.70;101274.60;184084;1244;58466;-62
2023/09/24 10:08:35;;;;;;;5.30;3.80;;;;;;;18.96;87.35;101275.38;184077;1244;44143;-61
2023/09/24 10:12:38;;;;;;;4.40;4.00;;;;;;;19.11;85.81;101279.59;184176;1244;46005;-62
2023/09/24 10:16:41;;;;;;;6.60;5.10;;;;;;;19.34;85.87;101291.52;183981;1246;45963;-60
2023/09/24 10:25:42;;;;;;;6.40;4.00;;;;;;;19.62;83.34;101295.83;184041;1245;58401;-61
2023/09/24 10:29:49;;;;;;;3.30;3.00;;;;;;;19.70;80.71;101294.82;184180;1246;46058;-60
2023/09/24 10:34:02;;;;;;;8.80;4.40;;;;;;;19.60;82.11;101286.87;184100;1246;44956;-61
2023/09/24 10:38:11;;;;;;;4.00;3.50;;;;;;;19.50;82.80;101294.81;184324;1246;45894;-61
2023/09/24 10:42:18;;;;;;;4.60;3.30;;;;;;;19.61;82.81;101294.88;184101;1246;43491;-59
2023/09/24 10:46:27;;;;;;;4.00;3.60;;;;;;;19.84;82.70;101291.14;184136;1247;58540;-60
2023/09/24 10:51:22;;;;;;;4.10;3.80;;;;;;;20.02;82.15;101287.28;184200;1248;43752;-62
2023/09/24 10:55:30;;;;;;;9.50;4.60;;;;;;;19.97;81.91;101280.33;183985;1245;44569;-60
2023/09/24 10:59:34;;;;;;;4.00;3.60;;;;;;;20.14;82.67;101281.36;183942;1245;43873;-61
2023/09/24 11:03:37;;;;;;;4.70;3.40;;;;;;;20.32;80.88;101287.95;183957;1246;43667;-60
2023/09/24 11:07:48;;;;;;;4.30;3.10;;;;;;;20.40;80.84;101289.21;184315;1244;58116;-61
2023/09/24 11:11:50;;;;;;;6.10;2.70;;;;;;;20.31;78.78;101283.30;184495;1244;43757;-61
2023/09/24 11:15:53;;;;;;;4.90;2.90;;;;;;;20.43;77.45;101284.73;184516;1246;43895;-62
2023/09/24 11:19:57;;;;;;;3.00;2.10;;;;;;;20.52;79.49;101282.80;184408;1242;43628;-61
2023/09/24 11:24:21;;;;;;;5.70;2.20;;;;;;;20.58;79.55;101285.36;184428;1242;44586;-61
2023/09/24 11:28:31;;;;;;;5.10;2.30;;;;;;;20.36;77.62;101288.44;184636;1244;58450;-61
2023/09/24 11:32:33;;;;;;;3.20;2.70;;;;;;;20.20;77.45;101297.15;184550;1243;44922;-61
2023/09/24 11:36:55;;;;;;;2.30;2.10;;;;;;;20.24;79.66;101296.20;184525;1243;43718;-61
2023/09/24 11:41:09;;;;;;;2.90;2.50;;;;;;;20.06;80.29;101293.73;184391;1243;44893;-60
2023/09/24 11:45:15;;;;;;;10.70;3.00;;;;;;;19.85;79.24;101295.02;184393;1244;43457;-59
2023/09/24 11:49:18;;;;;;;3.20;2.60;;;;;;;19.81;81.24;101289.63;184399;1241;58785;-61
2023/09/24 11:53:22;;;;;;;6.80;2.50;;;;;;;19.95;80.46;101289.16;184471;1241;45906;-62
2023/09/24 11:57:26;;;;;;;3.40;3.10;;;;;;;20.22;78.81;101284.27;184529;1244;44620;-61
2023/09/24 12:01:30;;;;;;;3.80;2.30;;;;;;;20.40;79.87;101280.77;184586;1241;45908;-61
2023/09/24 12:05:35;;;;;;;;;;;;;;;20.55;77.99;101282.63;184470;1241;43567;-61
2023/09/24 12:09:37;;;;;;;3.90;1.80;;;;;;;20.50;75.58;101280.83;184508;1241;58481;-61
2023/09/24 12:13:45;;;;;;;2.00;1.30;;;;;;;20.33;76.46;101278.13;184547;1241;44508;-61
2023/09/24 12:17:48;;;;;;;2.40;1.80;;;;;;;19.94;77.29;101277.89;184526;1241;43825;-60
2023/09/24 12:21:50;;;;;;;2.90;2.20;;;;;;;19.74;76.08;101281.09;184553;1241;43924;-61
2023/09/24 12:25:52;;;;;;;1.90;1.70;;;;;;;19.63;75.84;101278.61;184337;1241;45102;-61
2023/09/24 12:29:55;;;;;;;2.60;1.40;;;;;;;19.66;74.68;101278.30;184738;1241;58475;-60
2023/09/24 12:34:48;;;;;;;2.70;2.00;;;;;;;19.84;73.63;101269.23;184582;1241;43428;-62
2023/09/24 12:38:50;;;;;;;3.80;1.70;;;;;;;20.08;75.29;101268.89;184520;1241;43857;-60
2023/09/24 12:42:58;;;;;;;7.90;2.10;;;;;;;20.34;73.95;101265.77;184456;1241;45856;-61
2023/09/24 12:47:00;;;;;;;1.40;1.30;;;;;;;20.31;72.74;101266.27;184440;1241;45811;-60
2023/09/24 12:51:32;;;;;;;2.50;2.00;;;;;;;20.23;72.78;101263.86;184520;1241;58450;-62
2023/09/24 12:55:34;;;;;;;2.60;1.50;;;;;;;20.32;72.15;101259.96;184747;1241;44419;-62
2023/09/24 12:59:36;;;;;;;2.70;1.70;;;;;;;20.42;74.39;101262.51;184611;1241;44586;-60
2023/09/24 13:03:38;;;;;;;2.30;1.10;;;;;;;20.54;74.39;101260.39;184532;1241;45037;-61
2023/09/24 13:07:46;;;;;;;2.70;1.40;;;;;;;20.61;71.07;101256.00;184623;1241;43759;-62
2023/09/24 13:11:48;;;;;;;8.00;1.40;;;;;;;20.63;69.91;101254.36;184616;1241;58172;-61
2023/09/24 13:15:51;;;;;;;2.70;1.80;;;;;;;20.72;70.00;101246.91;184540;1241;45849;-61
2023/09/24 13:19:53;;;;;;;2.40;1.50;;;;;;;20.69;72.28;101250.10;184651;1241;43404;-61
2023/09/24 13:23:55;;;;;;;2.40;1.70;;;;;;;20.77;72.57;101251.73;184624;1241;45377;-60
2023/09/24 13:27:57;;;;;;;1.80;1.40;;;;;;;20.83;72.99;101246.63;184577;1241;44037;-62
2023/09/24 13:31:59;;;;;;;3.00;2.20;;;;;;;20.77;72.26;101251.98;184476;1241;58122;-62
2023/09/24 13:36:06;;;;;;;2.00;1.60;;;;;;;20.75;72.02;101250.13;184629;1241;43870;-61
2023/09/24 13:45:56;;;;;;;1.30;1.20;;;;;;;20.77;72.42;101245.40;184706;1241;45953;-61
2023/09/24 13:50:01;;;;;;;1.80;1.10;;;;;;;20.89;72.29;101247.06;184591;1243;43702;-62
2023/09/24 13:54:09;;;;;;;4.00;2.00;;;;;;;20.95;74.09;101246.56;184717;1241;58579;-60
2023/09/24 13:58:28;;;;;;;2.20;1.90;;;;;;;20.97;73.33;101241.42;184712;1241;43502;-63
2023/09/24 14:02:30;;;;;;;1.20;1.00;;;;;;;20.99;71.61;101240.36;184698;1241;44228;-62
2023/09/24 14:06:35;;;;;;;1.30;1.20;;;;;;;21.05;72.97;101234.95;184507;1241;46059;-62
2023/09/24 14:15:03;;;;;;;1.40;1.30;;;;;;;20.96;70.49;101240.06;184582;1243;58441;-61
2023/09/24 14:19:08;;;;;;;1.40;1.10;;;;;;;20.97;70.23;101241.06;185272;1237;43529;-61
2023/09/24 14:23:12;;;;;;;2.20;1.30;;;;;;;20.97;72.68;101240.17;185282;1238;44811;-60
2023/09/24 14:27:45;;;;;;;2.00;1.30;;;;;;;20.94;70.58;101244.76;185031;1236;45672;-61
2023/09/24 14:32:04;;;;;;;2.40;1.80;;;;;;;20.77;73.08;101240.78;185137;1239;43729;-60
2023/09/24 14:36:07;;;;;;;2.10;1.90;;;;;;;20.76;73.57;101241.04;185175;1237;58836;-59
2023/09/24 14:40:11;;;;;;;1.70;1.40;;;;;;;20.67;72.30;101243.60;185072;1237;43648;-60
2023/09/24 14:44:15;;;;;;;2.60;2.30;;;;;;;20.52;73.65;101249.38;184994;1237;45333;-60
2023/09/24 14:48:17;;;;;;;4.10;1.90;;;;;;;20.25;74.87;101256.95;184968;1237;43541;-60
2023/09/24 14:52:19;;;;;;;3.00;1.50;;;;;;;20.00;75.28;101261.13;184999;1237;43638;-59
2023/09/24 14:56:21;;;;;;;3.60;2.20;;;;;;;19.73;76.64;101261.69;185165;1237;60300;-60
2023/09/24 15:00:32;;;;;;;3.60;3.00;;;;;;;19.50;78.09;101268.03;185215;1237;43696;-60
2023/09/24 15:04:34;;;;;;;2.60;2.30;;;;;;;19.40;80.49;101266.80;185187;1237;43958;-60
2023/09/24 15:08:36;;;;;;;5.50;1.60;;;;;;;19.43;80.99;101266.30;185096;1237;45974;-61
2023/09/24 15:12:39;;;;;;;6.40;2.20;;;;;;;19.50;81.13;101268.95;185146;1237;44955;-61
2023/09/24 15:16:42;;;;;;;3.60;1.70;;;;;;;19.64;80.06;101265.54;185105;1236;58444;-60
2023/09/24 15:20:44;;;;;;;1.80;1.70;;;;;;;19.77;78.00;101265.21;184768;1237;46021;-60
2023/09/24 15:24:50;;;;;;;3.20;1.60;;;;;;;19.88;78.97;101265.02;184909;1237;43767;-60
2023/09/24 15:28:54;;;;;;;1.80;1.70;;;;;;;19.89;78.67;101264.40;185021;1237;44715;-61
2023/09/24 15:32:58;;;;;;;1.90;1.70;;;;;;;19.89;76.35;101265.14;185220;1236;45912;-61
2023/09/24 15:37:01;;;;;;;3.50;1.70;;;;;;;19.84;76.89;101266.20;185079;1236;58219;-60
2023/09/24 15:41:18;;;;;;;3.50;1.70;;;;;;;19.80;78.42;101266.23;185182;1236;44622;-61
2023/09/24 15:45:31;;;;;;;2.40;2.10;;;;;;;19.75;78.08;101270.14;185107;1239;45053;-60
2023/09/24 15:49:34;;;;;;;2.80;1.80;;;;;;;19.71;77.95;101274.52;185143;1236;43822;-61
2023/09/24 15:53:37;;;;;;;5.30;2.60;;;;;;;19.61;78.65;101279.75;185138;1236;44512;-60
2023/09/24 15:57:40;;;;;;;3.10;1.40;;;;;;;19.55;76.80;101286.08;185180;1240;58251;-62
2023/09/24 16:01:43;;;;;;;2.40;1.80;;;;;;;19.52;78.24;101286.56;185434;1236;45915;-60
2023/09/24 16:05:45;;;;;;;1.50;1.40;;;;;;;19.43;79.08;101293.63;185292;1236;44595;-60
2023/09/24 16:09:54;;;;;;;2.10;1.80;;;;;;;19.37;79.99;101292.65;185158;1237;45863;-61
2023/09/24 16:13:56;;;;;;;3.40;1.70;;;;;;;19.33;81.20;101298.42;185220;1237;43474;-59
2023/09/24 16:17:58;;;;;;;5.50;2.10;;;;;;;19.20;81.53;101302.66;185171;1237;58460;-59
2023/09/24 16:22:03;;;;;;;2.70;2.20;;;;;;;19.08;81.73;101304.96;185231;1236;45143;-59
2023/09/24 16:26:11;;;;;;;2.20;1.50;;;;;;;18.99;83.01;101309.96;185369;1237;44129;-59
2023/09/24 16:30:18;;;;;;;2.30;2.10;;;;;;;18.89;83.64;101311.85;185140;1236;43760;-59
2023/09/24 16:34:20;;;;;;;2.00;1.80;;;;;;;18.80;84.38;101310.77;185231;1239;44595;-59
2023/09/24 16:38:21;;;;;;;4.20;2.10;;;;;;;18.70;84.77;101316.45;185206;1237;57503;-59
2023/09/24 16:42:24;;;;;;;2.40;1.90;;;;;;;18.60;85.30;101315.44;185052;1236;45918;-60
2023/09/24 16:46:33;;;;;;;;;;;;;;;18.47;86.16;101317.66;184988;1236;44129;-60
2023/09/24 16:50:36;;;;;;;3.30;2.30;;;;;;;18.36;86.76;101319.04;185292;1236;44333;-60
2023/09/24 16:54:38;;;;;;;3.20;2.90;;;;;;;18.27;86.86;101322.27;185009;1240;45276;-60
2023/09/24 16:58:40;;;;;;;3.70;3.20;;;;;;;18.18;86.98;101327.63;185284;1237;58663;-60
2023/09/24 17:02:48;;;;;;;5.10;3.80;;;;;;;18.06;87.34;101330.54;184876;1236;43674;-60
2023/09/24 17:06:52;;;;;;;9.20;6.70;;;;;;;17.91;87.93;101333.42;185124;1236;45938;-61
2023/09/24 17:10:56;;;;;;;6.60;5.10;;;;;;;17.75;88.96;101336.16;185371;1237;43871;-60
2023/09/24 17:14:58;;;;;;;8.90;8.10;;;;;;;17.56;90.09;101333.70;185167;1237;43487;-60
2023/09/24 17:19:00;;;;;;;24.40;11.90;;;;;;;17.40;90.84;101339.82;185275;1236;58182;-60
2023/09/24 17:23:04;;;;;;;6.70;6.10;;;;;;;17.23;90.97;101341.23;185092;1237;45964;-60
2023/09/24 17:27:06;;;;;;;5.10;2.90;;;;;;;17.10;91.58;101346.06;184999;1236;44032;-59
2023/09/24 17:31:12;;;;;;;3.40;3.10;;;;;;;16.99;93.67;101345.45;185231;1237;45006;-59
2023/09/24 17:35:21;;;;;;;3.50;3.20;;;;;;;16.84;95.81;101345.09;185637;1234;44107;-59
2023/09/24 17:39:25;;;;;;;4.10;3.20;;;;;;;16.78;96.36;101351.21;185651;1233;58449;-59
2023/09/24 17:43:28;;;;;;;3.50;2.80;;;;;;;16.74;96.79;101358.27;185691;1234;43963;-60
2023/09/24 17:47:31;;;;;;;5.30;3.10;;;;;;;16.67;97.11;101364.56;185646;1233;44675;-59
2023/09/24 17:51:38;;;;;;;4.10;3.60;;;;;;;16.58;97.19;101368.47;185675;1234;43663;-60
2023/09/24 17:55:41;;;;;;;5.20;3.40;;;;;;;16.50;97.41;101371.67;185705;1234;45910;-59
2023/09/24 17:59:43;;;;;;;3.30;3.00;;;;;;;16.38;98.46;101374.00;185539;1233;58277;-58
2023/09/24 18:03:52;;;;;;;4.50;3.90;;;;;;;16.28;98.17;101379.68;185603;1237;43625;-60
2023/09/24 18:07:59;;;;;;;6.70;4.40;;;;;;;16.21;97.83;101392.48;185758;1233;43802;-60
2023/09/24 18:18:02;;;;;;;4.80;4.00;;;;;;;16.10;97.97;101395.60;175674;1292;566946;-60
2023/09/24 18:22:07;;;;;;;6.30;5.70;;;;;;;16.01;98.38;101396.57;179858;1266;58649;-59
2023/09/24 18:26:20;;;;;;;7.10;4.30;;;;;;;15.91;98.53;101399.90;179836;1266;43700;-59
2023/09/24 18:31:22;;;;;;;6.00;4.90;;;;;;;15.76;99.19;101406.52;179888;1265;200520;-59
2023/09/24 18:35:26;;;;;;;6.60;4.70;;;;;;;15.61;99.79;101410.29;180047;1263;45932;-59
2023/09/24 18:39:32;;;;;;;;;;;;;;;15.50;100.00;101412.48;180116;1265;44739;-59
2023/09/24 18:43:39;;;;;;;11.30;6.20;;;;;;;15.41;99.30;101408.91;180095;1266;58311;-58
2023/09/24 18:47:42;;;;;;;8.50;5.70;;;;;;;15.27;97.93;101412.05;180021;1263;43830;-60
2023/09/24 18:51:46;;;;;;;7.00;6.30;;;;;;;15.13;96.72;101420.21;180006;1263;43930;-59
2023/09/24 18:56:01;;;;;;;8.20;6.40;;;;;;;14.98;96.75;101422.53;180102;1263;44958;-61
2023/09/24 19:00:11;;;;;;;11.60;8.10;;;;;;;14.81;97.72;101428.67;180907;1257;45887;-60
2023/09/24 19:04:16;;;;;;;13.70;11.20;;;;;;;14.64;99.71;101437.52;180640;1256;59753;-61
2023/09/24 19:08:19;;;;;;;26.20;15.90;;;;;;;14.50;100.00;101439.52;180672;1257;43686;-60
2023/09/24 19:12:24;;;;;;;17.80;14.30;;;;;;;14.39;100.00;101438.61;180728;1257;43540;-60
2023/09/24 19:17:21;;;;;;;23.40;20.20;;;;;;;14.33;100.00;101441.42;180607;1257;45077;-60
2023/09/24 19:21:27;;;;;;;21.50;18.70;;;;;;;14.29;100.00;101443.02;180789;1257;43586;-60
2023/09/24 19:25:31;;;;;;;27.20;23.50;;;;;;;14.27;100.00;101446.38;180588;1257;58706;-62
2023/09/24 19:29:34;;;;;;;32.60;24.40;;;;;;;14.27;100.00;101449.36;180709;1256;46102;-60
2023/09/24 19:33:38;;;;;;;18.50;16.00;;;;;;;14.28;100.00;101448.55;180607;1257;43615;-59
2023/09/24 19:37:42;;;;;;;13.00;11.70;;;;;;;14.27;100.00;101449.90;180801;1257;44002;-61
2023/09/24 19:41:46;;;;;;;19.60;16.00;;;;;;;14.28;100.00;101450.21;180542;1257;43696;-59
2023/09/24 19:45:52;;;;;;;;;;;;;;;14.28;100.00;101450.36;180648;1257;58916;-60